createdAt,value
2023-03-02T00:01:36.636Z,-1.34
2023-03-02T00:06:55.772Z,-1.45
2023-03-02T00:12:15.413Z,-1.51
2023-03-02T00:17:43.808Z,-1.48
2023-03-02T00:22:54.304Z,-1.5
2023-03-02T00:28:13.844Z,-1.54
2023-03-02T00:33:33.447Z,-1.61
2023-03-02T00:38:52.659Z,-1.69
2023-03-02T00:44:11.937Z,-1.72
2023-03-02T00:49:30.833Z,-1.75
2023-03-02T00:54:49.692Z,-1.76
2023-03-02T01:00:08.182Z,-1.71
2023-03-02T01:05:37.812Z,-1.66
2023-03-02T01:10:47.007Z,-1.64
2023-03-02T01:16:06.234Z,-1.72
2023-03-02T01:21:25.522Z,-1.81
2023-03-02T01:26:44.633Z,-1.92
2023-03-02T01:32:03.758Z,-2.02
2023-03-02T01:37:22.880Z,-2.06
2023-03-02T01:42:42.530Z,-2.02
2023-03-02T01:48:01.865Z,-2.05
2023-03-02T01:53:20.975Z,-2.1
2023-03-02T01:58:39.956Z,-2.16
2023-03-02T02:03:59.541Z,-2.19
2023-03-02T02:09:19.059Z,-2.27
2023-03-02T02:14:38.849Z,-2.38
2023-03-02T02:19:57.821Z,-2.5
2023-03-02T02:25:16.923Z,-2.62
2023-03-02T02:30:36.227Z,-2.61
2023-03-02T02:35:55.304Z,-2.69
2023-03-02T02:41:15.039Z,-2.75
2023-03-02T02:46:34.504Z,-2.67
2023-03-02T02:51:53.887Z,-2.53
2023-03-02T02:57:13.339Z,-2.47
2023-03-02T03:02:32.934Z,-2.6
2023-03-02T03:07:52.234Z,-2.74
2023-03-02T03:13:11.175Z,-2.72
2023-03-02T03:18:30.348Z,-2.68
2023-03-02T03:23:49.501Z,-2.89
2023-03-02T03:29:08.429Z,-3.03
2023-03-02T03:34:27.326Z,-2.99
2023-03-02T03:39:46.707Z,-3.08
2023-03-02T03:45:05.809Z,-3.08
2023-03-02T03:50:24.708Z,-3
2023-03-02T03:55:44.141Z,-3.03
2023-03-02T04:01:03.173Z,-3.27
2023-03-02T04:06:21.885Z,-3.37
2023-03-02T04:11:41.455Z,-3.48
2023-03-02T04:17:00.337Z,-3.42
2023-03-02T04:22:19.886Z,-3.42
2023-03-02T04:27:39.762Z,-3.46
2023-03-02T04:32:59.487Z,-3.43
2023-03-02T04:38:18.943Z,-3.36
2023-03-02T04:43:38.789Z,-3.23
2023-03-02T04:48:57.738Z,-3.15
2023-03-02T04:54:16.681Z,-3.09
2023-03-02T04:59:35.901Z,-3.08
2023-03-02T05:04:55.344Z,-3.1
2023-03-02T05:10:14.106Z,-3.12
2023-03-02T05:15:33.894Z,-3.33
2023-03-02T05:20:53.421Z,-3.53
2023-03-02T05:26:12.552Z,-3.71
2023-03-02T05:31:31.721Z,-3.61
2023-03-02T05:36:51.341Z,-3.48
2023-03-02T05:37:16.205Z,-3.3
2023-03-02T05:42:35.860Z,-3.51
2023-03-02T05:47:55.624Z,-3.43
2023-03-02T05:53:15.123Z,-3.39
2023-03-02T05:58:34.549Z,-3.35
2023-03-02T06:03:54.251Z,-3.35
2023-03-02T06:09:13.948Z,-3.3
2023-03-02T06:14:33.100Z,-3.3
2023-03-02T06:19:52.157Z,-3.26
2023-03-02T06:25:11.649Z,-3.05
2023-03-02T06:30:30.650Z,-2.88
2023-03-02T06:35:49.708Z,-2.67
2023-03-02T06:41:08.564Z,-2.5
2023-03-02T06:46:27.757Z,-2.32
2023-03-02T06:51:47.240Z,-2.07
2023-03-02T06:57:06.999Z,-1.76
2023-03-02T07:02:27.057Z,-1.47
2023-03-02T07:07:46.680Z,-1.11
2023-03-02T07:13:08.059Z,-0.83
2023-03-02T07:18:24.976Z,-0.52
2023-03-02T07:23:44.002Z,-0.24
2023-03-02T07:29:03.489Z,-0.03
2023-03-02T07:34:22.636Z,0.3
2023-03-02T07:39:41.619Z,0.51
2023-03-02T07:45:00.986Z,0.65
2023-03-02T07:50:20.407Z,1.13
2023-03-02T07:55:39.529Z,1.73
2023-03-02T08:00:58.381Z,2.32
2023-03-02T08:06:17.142Z,2.66
2023-03-02T08:11:35.935Z,2.87
2023-03-02T08:16:54.823Z,3
2023-03-02T08:22:14.102Z,3.49
2023-03-02T08:27:32.932Z,3.86
2023-03-02T08:32:52.217Z,4.21
2023-03-02T08:38:10.938Z,4.89
2023-03-02T08:43:30.188Z,5.01
2023-03-02T08:48:49.922Z,5.51
2023-03-02T08:54:08.901Z,5.62
2023-03-02T08:59:28.380Z,5.5
2023-03-02T09:04:47.713Z,6.01
2023-03-02T09:10:06.487Z,6.37
2023-03-02T09:15:26.142Z,6.8
2023-03-02T09:20:44.965Z,7.08
2023-03-02T09:26:03.841Z,6.98
2023-03-02T09:31:22.809Z,6.94
2023-03-02T09:36:41.615Z,6.84
2023-03-02T09:42:00.502Z,7.25
2023-03-02T09:47:30.026Z,7.53
2023-03-02T09:52:39.061Z,8.14
2023-03-02T09:57:58.004Z,8.24
2023-03-02T10:03:17.837Z,7.89
2023-03-02T10:08:36.276Z,7.7
2023-03-02T10:13:55.118Z,-0.01
2023-03-02T10:19:14.204Z,-0.01
2023-03-02T10:24:33.859Z,8.87
2023-03-02T10:29:52.971Z,9.1
2023-03-02T10:35:12.011Z,9.35
2023-03-02T10:40:31.147Z,9.13
2023-03-02T10:45:50.742Z,9
2023-03-02T10:51:09.557Z,9.32
2023-03-02T10:56:28.894Z,9.74
2023-03-02T11:01:48.374Z,10.05
2023-03-02T11:07:07.535Z,10.5
2023-03-02T11:12:26.366Z,11.11
2023-03-02T11:17:46.049Z,10.81
2023-03-02T11:23:05.581Z,10.75
2023-03-02T11:28:24.881Z,10.47
2023-03-02T11:33:44.332Z,10.68
2023-03-02T11:39:03.320Z,10.64
2023-03-02T11:44:22.249Z,10.88
2023-03-02T11:49:40.930Z,11.11
2023-03-02T11:55:00.631Z,11.14
2023-03-02T12:00:19.401Z,11.33
2023-03-02T12:05:38.717Z,11.94
2023-03-02T12:10:58.079Z,11.46
2023-03-02T12:16:17.549Z,11.26
2023-03-02T12:21:36.408Z,11.74
2023-03-02T12:26:55.677Z,12.32
2023-03-02T12:33:29.841Z,12.21
2023-03-02T12:37:35.401Z,12.44
2023-03-02T12:42:54.957Z,12.39
2023-03-02T12:48:14.680Z,12.34
2023-03-02T12:53:34.159Z,12.31
2023-03-02T12:58:53.660Z,12.34
2023-03-02T13:04:13.309Z,12.31
2023-03-02T13:09:32.033Z,12.69
2023-03-02T13:14:50.682Z,13.04
2023-03-02T13:20:09.649Z,13.31
2023-03-02T13:25:28.820Z,13.38
2023-03-02T13:30:48.479Z,12.85
2023-03-02T13:36:06.612Z,12.78
2023-03-02T13:41:25.782Z,13.09
2023-03-02T13:46:46.520Z,13
2023-03-02T13:52:07.119Z,13.33
2023-03-02T13:57:24.399Z,13.47
2023-03-02T14:02:43.529Z,13.46
2023-03-02T14:08:03.197Z,13.5
2023-03-02T14:13:22.433Z,13.57
2023-03-02T14:18:41.312Z,13.61
2023-03-02T14:24:00.797Z,13.74
2023-03-02T14:29:19.731Z,13.71
2023-03-02T14:34:39.212Z,13.68
2023-03-02T14:39:57.990Z,13.71
2023-03-02T14:45:16.814Z,13.82
2023-03-02T14:50:35.854Z,13.97
2023-03-02T14:55:55.088Z,13.81
2023-03-02T15:01:13.983Z,13.81
2023-03-02T15:06:33.512Z,13.74
2023-03-02T15:11:52.008Z,13.51
2023-03-02T15:17:10.802Z,13.69
2023-03-02T15:22:30.579Z,13.57
2023-03-02T15:27:49.313Z,13.4
2023-03-02T15:33:08.182Z,13.26
2023-03-02T15:38:27.361Z,13.26
2023-03-02T15:43:46.308Z,13.2
2023-03-02T15:49:05.269Z,12.8
2023-03-02T15:54:23.980Z,12.75
2023-03-02T15:59:43.553Z,12.76
2023-03-02T16:05:03.038Z,12.56
2023-03-02T16:10:22.608Z,12.44
2023-03-02T16:15:42.110Z,12.38
2023-03-02T16:21:01.503Z,12.14
2023-03-02T16:26:20.282Z,12
2023-03-02T16:31:39.244Z,11.81
2023-03-02T16:42:17.390Z,11.11
2023-03-02T16:47:36.697Z,10.59
2023-03-02T16:52:56.252Z,10.1
2023-03-02T16:58:15.471Z,9.71
2023-03-02T17:03:34.928Z,9.35
2023-03-02T17:08:54.185Z,9.1
2023-03-02T17:14:13.415Z,9
2023-03-02T17:19:32.036Z,8.82
2023-03-02T17:24:50.775Z,8.72
2023-03-02T17:30:10.494Z,8.59
2023-03-02T17:35:29.693Z,8.56
2023-03-02T17:40:49.398Z,8.46
2023-03-02T17:46:09.072Z,8.25
2023-03-02T17:51:27.938Z,8.17
2023-03-02T17:56:47.307Z,7.95
2023-03-02T18:02:06.245Z,7.74
2023-03-02T18:07:25.381Z,7.55
2023-03-02T18:12:44.505Z,7.45
2023-03-02T18:18:03.345Z,7.33
2023-03-02T18:23:22.634Z,6.98
2023-03-02T18:28:42.147Z,6.3
2023-03-02T18:34:01.346Z,5.88
2023-03-02T18:39:20.184Z,5.6
2023-03-02T18:44:39.396Z,5.67
2023-03-02T18:49:59.005Z,5.75
2023-03-02T18:55:18.146Z,5.57
2023-03-02T19:00:37.548Z,5.29
2023-03-02T19:05:58.014Z,5.16
2023-03-02T19:11:15.911Z,5.17
2023-03-02T19:16:35.042Z,5.07
2023-03-02T19:21:53.957Z,4.92
2023-03-02T19:27:13.640Z,4.71
2023-03-02T19:32:32.563Z,4.46
2023-03-02T19:37:52.159Z,4.41
2023-03-02T19:43:11.361Z,4.08
2023-03-02T19:48:33.394Z,3.93
2023-03-02T19:53:49.590Z,3.93
2023-03-02T19:59:08.545Z,3.85
2023-03-02T20:04:28.161Z,3.76
2023-03-02T20:09:47.857Z,3.69
2023-03-02T20:15:06.704Z,3.68
2023-03-02T20:20:26.260Z,3.7
2023-03-02T20:25:47.190Z,3.76
2023-03-02T20:31:05.110Z,3.91
2023-03-02T20:36:24.537Z,3.86
2023-03-02T20:41:43.652Z,3.59
2023-03-02T20:47:02.782Z,3.18
2023-03-02T20:52:21.624Z,3.14
2023-03-02T20:57:41.123Z,2.98
2023-03-02T21:03:00.460Z,2.91
2023-03-02T21:08:19.378Z,2.68
2023-03-02T21:13:38.736Z,2.25
2023-03-02T21:18:57.760Z,2.11
2023-03-02T21:24:17.253Z,1.89
2023-03-02T21:29:36.908Z,1.88
2023-03-02T21:34:55.927Z,1.89
2023-03-02T21:40:14.771Z,1.71
2023-03-02T21:45:33.883Z,1.6
2023-03-02T21:50:53.023Z,1.4
2023-03-02T21:56:12.397Z,1.07
2023-03-02T22:01:31.569Z,0.82
2023-03-02T22:06:50.618Z,0.48
2023-03-02T22:12:09.458Z,0.6
2023-03-02T22:17:28.401Z,0.44
2023-03-02T22:22:48.653Z,0.37
2023-03-02T22:28:08.248Z,0.2
2023-03-02T22:33:27.768Z,0
2023-03-02T22:38:46.619Z,-0.1
2023-03-02T22:44:05.962Z,0.16
2023-03-02T22:49:25.000Z,0.18
2023-03-02T22:54:44.798Z,-0.03
2023-03-02T23:00:03.975Z,-0.07
2023-03-02T23:05:23.732Z,-0.22
2023-03-02T23:10:42.491Z,-0.38
2023-03-02T23:16:01.501Z,-0.49
2023-03-02T23:21:20.641Z,-0.77
2023-03-02T23:21:46.832Z,-0.62
2023-03-02T23:28:45.435Z,-0.94
2023-03-02T23:37:45.247Z,-1.28
2023-03-02T23:48:23.340Z,-0.75
2023-03-02T23:53:42.942Z,-1
2023-03-02T23:59:02.402Z,-1.14
